createdAt,value
2022-12-05T00:06:45.796Z,39.53
2022-12-05T00:06:50.875Z,38.78
2022-12-05T00:07:50.613Z,39.96
2022-12-05T00:08:50.526Z,40.28
2022-12-05T00:09:50.526Z,39.64
2022-12-05T00:10:50.506Z,39.85
2022-12-05T00:11:50.507Z,40.28
2022-12-05T00:12:50.477Z,39.96
2022-12-05T00:13:50.467Z,39.96
2022-12-05T00:14:50.450Z,39.32
2022-12-05T00:15:50.438Z,40.39
2022-12-05T00:16:50.576Z,40.18
2022-12-05T00:17:50.417Z,39.75
2022-12-05T00:18:51.361Z,39.85
2022-12-05T00:19:56.429Z,40.18
2022-12-05T00:20:52.326Z,39.85
2022-12-05T00:21:50.369Z,40.93
2022-12-05T00:22:50.348Z,40.82
2022-12-05T00:23:50.338Z,40.82
2022-12-05T00:24:50.322Z,39.53
2022-12-05T00:25:50.315Z,39.64
2022-12-05T00:26:50.308Z,39.10
2022-12-05T00:27:50.303Z,40.61
2022-12-05T00:28:50.274Z,38.78
2022-12-05T00:29:50.260Z,39.96
2022-12-05T00:30:50.239Z,40.39
2022-12-05T00:31:50.308Z,40.61
2022-12-05T00:32:50.224Z,40.28
2022-12-05T00:33:50.232Z,39.85
2022-12-05T00:34:50.194Z,40.61
2022-12-05T00:35:50.190Z,39.53
2022-12-05T00:36:50.183Z,39.75
2022-12-05T00:37:50.398Z,39.53
2022-12-05T00:38:50.141Z,38.99
2022-12-05T00:39:50.132Z,39.10
2022-12-05T00:40:50.114Z,40.50
2022-12-05T00:41:50.123Z,40.93
2022-12-05T00:42:52.459Z,40.50
2022-12-05T00:43:50.072Z,40.50
2022-12-05T00:44:50.064Z,39.53
2022-12-05T00:45:50.076Z,40.61
2022-12-05T00:46:50.062Z,40.61
2022-12-05T00:47:50.023Z,38.99
2022-12-05T00:48:50.018Z,38.67
2022-12-05T00:49:50.161Z,40.50
2022-12-05T00:50:49.978Z,39.64
2022-12-05T00:51:49.988Z,38.78
2022-12-05T00:52:49.967Z,40.28
2022-12-05T00:53:49.944Z,39.96
2022-12-05T00:54:49.950Z,40.18
2022-12-05T00:55:49.915Z,39.32
2022-12-05T00:56:49.905Z,39.96
2022-12-05T00:57:49.901Z,39.53
2022-12-05T00:58:49.875Z,39.85
2022-12-05T00:59:49.872Z,39.75
2022-12-05T01:00:49.959Z,40.61
2022-12-05T01:01:49.960Z,39.85
2022-12-05T01:02:49.890Z,40.18
2022-12-05T01:03:49.836Z,40.61
2022-12-05T01:04:49.797Z,40.50
2022-12-05T01:05:49.790Z,39.96
2022-12-05T01:06:49.785Z,40.28
2022-12-05T01:07:49.833Z,40.18
2022-12-05T01:08:49.746Z,39.53
2022-12-05T01:09:49.738Z,40.07
2022-12-05T01:10:49.736Z,40.07
2022-12-05T01:11:49.727Z,39.53
2022-12-05T01:12:49.698Z,40.18
2022-12-05T01:13:49.688Z,39.75
2022-12-05T01:14:49.671Z,39.85
2022-12-05T01:15:50.615Z,39.53
2022-12-05T01:16:49.750Z,39.53
2022-12-05T01:17:49.638Z,39.64
2022-12-05T01:18:49.618Z,39.85
2022-12-05T01:19:49.604Z,39.64
2022-12-05T01:20:49.597Z,39.53
2022-12-05T01:21:49.586Z,39.64
2022-12-05T01:22:49.567Z,38.78
2022-12-05T01:23:49.559Z,38.78
2022-12-05T01:24:49.779Z,38.89
2022-12-05T01:25:49.766Z,39.75
2022-12-05T01:26:49.522Z,40.07
2022-12-05T01:27:50.192Z,39.42
2022-12-05T01:28:49.538Z,39.75
2022-12-05T01:29:49.478Z,40.50
2022-12-05T01:30:49.449Z,39.85
2022-12-05T01:31:49.544Z,40.18
2022-12-05T01:32:49.436Z,38.99
2022-12-05T01:33:49.429Z,40.61
2022-12-05T01:34:49.411Z,39.75
2022-12-05T01:35:49.406Z,39.53
2022-12-05T01:36:49.390Z,40.82
2022-12-05T01:37:50.334Z,39.85
2022-12-05T01:38:49.351Z,40.28
2022-12-05T01:39:49.348Z,39.10
2022-12-05T01:40:49.331Z,39.53
2022-12-05T01:41:49.332Z,40.28
2022-12-05T01:42:49.299Z,39.85
2022-12-05T01:43:49.293Z,39.75
2022-12-05T01:44:49.281Z,39.85
2022-12-05T01:45:49.317Z,39.85
2022-12-05T01:46:49.253Z,39.10
2022-12-05T01:47:49.233Z,39.53
2022-12-05T01:48:49.223Z,39.85
2022-12-05T01:49:49.213Z,39.53
2022-12-05T01:50:49.204Z,38.89
2022-12-05T01:51:49.194Z,38.99
2022-12-05T01:52:49.170Z,38.89
2022-12-05T01:53:49.164Z,39.64
2022-12-05T01:54:49.157Z,39.75
2022-12-05T01:55:49.136Z,39.21
2022-12-05T01:56:49.122Z,38.78
2022-12-05T01:57:50.059Z,39.75
2022-12-05T01:58:49.094Z,39.85
2022-12-05T01:59:49.077Z,38.99
2022-12-05T02:00:49.198Z,40.71
2022-12-05T02:01:49.108Z,39.53
2022-12-05T02:02:49.214Z,40.07
2022-12-05T02:03:49.043Z,39.64
2022-12-05T02:04:49.005Z,38.78
2022-12-05T02:05:49.004Z,39.10
2022-12-05T02:06:48.997Z,39.75
2022-12-05T02:07:49.013Z,39.85
2022-12-05T02:08:49.777Z,39.53
2022-12-05T02:09:48.947Z,39.10
2022-12-05T02:10:48.925Z,40.07
2022-12-05T02:11:48.938Z,38.99
2022-12-05T02:12:48.918Z,39.21
2022-12-05T02:13:48.897Z,39.10
2022-12-05T02:14:48.878Z,39.85
2022-12-05T02:15:52.383Z,39.96
2022-12-05T02:16:49.906Z,38.78
2022-12-05T02:17:48.839Z,38.89
2022-12-05T02:18:48.837Z,39.85
2022-12-05T02:19:48.818Z,39.53
2022-12-05T02:20:48.800Z,39.75
2022-12-05T02:21:48.822Z,38.78
2022-12-05T02:22:48.777Z,39.42
2022-12-05T02:23:48.763Z,40.18
2022-12-05T02:24:48.761Z,38.99
2022-12-05T02:25:48.739Z,39.53
2022-12-05T02:26:48.727Z,39.10
2022-12-05T02:27:48.713Z,38.67
2022-12-05T02:28:48.710Z,38.67
2022-12-05T02:29:49.059Z,38.99
2022-12-05T02:30:48.670Z,39.75
2022-12-05T02:31:48.769Z,39.85
2022-12-05T02:32:48.669Z,39.64
2022-12-05T02:33:48.754Z,38.99
2022-12-05T02:34:48.620Z,39.96
2022-12-05T02:35:48.602Z,39.96
2022-12-05T02:36:48.602Z,39.85
2022-12-05T02:37:49.531Z,39.96
2022-12-05T02:38:48.561Z,39.21
2022-12-05T02:39:48.562Z,38.99
2022-12-05T02:40:48.549Z,40.18
2022-12-05T02:41:48.802Z,39.53
2022-12-05T02:42:48.511Z,39.64
2022-12-05T02:43:48.507Z,39.75
2022-12-05T02:44:48.484Z,39.42
2022-12-05T02:45:48.608Z,38.78
2022-12-05T02:46:48.480Z,39.21
2022-12-05T02:47:48.445Z,38.35
2022-12-05T02:48:48.664Z,39.75
2022-12-05T02:49:48.415Z,38.46
2022-12-05T02:50:48.411Z,39.10
2022-12-05T02:51:48.405Z,39.85
2022-12-05T02:52:48.653Z,39.64
2022-12-05T02:53:48.395Z,38.89
2022-12-05T02:54:48.389Z,38.78
2022-12-05T02:55:48.575Z,39.10
2022-12-05T02:56:48.349Z,38.35
2022-12-05T02:57:48.321Z,38.78
2022-12-05T02:58:48.436Z,38.46
2022-12-05T02:59:48.294Z,39.85
2022-12-05T03:00:48.456Z,38.78
2022-12-05T03:01:48.312Z,39.10
2022-12-05T03:02:48.666Z,39.85
2022-12-05T03:03:48.308Z,39.96
2022-12-05T03:04:48.359Z,39.85
2022-12-05T03:05:48.234Z,39.10
2022-12-05T03:06:48.478Z,38.56
2022-12-05T03:07:48.500Z,38.89
2022-12-05T03:08:48.177Z,38.67
2022-12-05T03:09:48.173Z,38.35
2022-12-05T03:10:48.153Z,39.10
2022-12-05T03:11:48.137Z,38.78
2022-12-05T03:12:48.139Z,38.78
2022-12-05T03:13:48.100Z,39.96
2022-12-05T03:14:48.248Z,39.10
2022-12-05T03:15:48.077Z,39.53
2022-12-05T03:16:48.317Z,38.67
2022-12-05T03:17:48.048Z,38.67
2022-12-05T03:18:48.050Z,39.85
2022-12-05T03:19:48.868Z,39.10
2022-12-05T03:20:48.028Z,38.78
2022-12-05T03:21:48.009Z,38.89
2022-12-05T03:22:48.967Z,39.53
2022-12-05T03:23:47.991Z,38.99
2022-12-05T03:24:47.976Z,38.78
2022-12-05T03:25:47.948Z,38.67
2022-12-05T03:26:47.957Z,38.78
2022-12-05T03:27:47.921Z,39.10
2022-12-05T03:28:48.248Z,38.67
2022-12-05T03:29:48.097Z,39.53
2022-12-05T03:30:47.995Z,38.56
2022-12-05T03:31:47.880Z,39.85
2022-12-05T03:32:47.870Z,38.78
2022-12-05T03:33:47.841Z,39.10
2022-12-05T03:34:48.051Z,39.10
2022-12-05T03:35:47.811Z,39.53
2022-12-05T03:36:47.833Z,38.89
2022-12-05T03:37:47.791Z,38.78
2022-12-05T03:38:47.875Z,39.10
2022-12-05T03:39:47.764Z,38.99
2022-12-05T03:40:48.562Z,38.67
2022-12-05T03:41:47.761Z,38.99
2022-12-05T03:42:48.543Z,38.67
2022-12-05T03:43:47.732Z,38.78
2022-12-05T03:44:47.693Z,38.46
2022-12-05T03:45:48.041Z,39.64
2022-12-05T03:46:47.693Z,38.46
2022-12-05T03:47:48.233Z,38.78
2022-12-05T03:48:47.654Z,38.78
2022-12-05T03:49:47.635Z,38.46
2022-12-05T03:50:47.634Z,38.89
2022-12-05T03:51:48.576Z,38.99
2022-12-05T03:53:18.244Z,38.46
2022-12-05T03:53:48.584Z,38.99
2022-12-05T03:54:47.589Z,39.96
2022-12-05T03:55:47.554Z,38.67
2022-12-05T03:56:47.778Z,38.78
2022-12-05T03:57:47.530Z,39.21
2022-12-05T03:58:47.528Z,39.21
2022-12-05T03:59:47.507Z,38.78
2022-12-05T04:00:47.497Z,38.24
2022-12-05T04:01:47.536Z,38.89
2022-12-05T04:02:47.476Z,38.89
2022-12-05T04:03:47.537Z,39.10
2022-12-05T04:04:47.477Z,38.99
2022-12-05T04:05:47.422Z,38.89
2022-12-05T04:06:47.444Z,38.67
2022-12-05T04:07:47.680Z,37.60
2022-12-05T04:08:47.396Z,38.35
2022-12-05T04:09:47.376Z,38.56
2022-12-05T04:10:47.379Z,38.78
2022-12-05T04:11:47.358Z,39.85
2022-12-05T04:12:47.348Z,38.35
2022-12-05T04:13:47.328Z,38.78
2022-12-05T04:14:48.128Z,38.56
2022-12-05T04:15:47.310Z,38.67
2022-12-05T04:16:47.298Z,39.10
2022-12-05T04:17:53.270Z,38.56
2022-12-05T04:18:48.537Z,39.10
2022-12-05T04:19:47.259Z,39.10
2022-12-05T04:20:47.230Z,38.89
2022-12-05T04:21:48.019Z,38.67
2022-12-05T04:22:47.210Z,38.67
2022-12-05T04:23:48.002Z,38.46
2022-12-05T04:24:47.187Z,38.78
2022-12-05T04:25:47.180Z,38.35
2022-12-05T04:26:47.171Z,39.10
2022-12-05T04:27:47.140Z,38.78
2022-12-05T04:28:47.135Z,38.56
2022-12-05T04:29:47.134Z,37.92
2022-12-05T04:30:47.141Z,38.46
2022-12-05T04:31:47.120Z,38.67
2022-12-05T04:32:47.331Z,38.56
2022-12-05T04:33:47.063Z,38.35
2022-12-05T04:34:47.067Z,37.92
2022-12-05T04:35:47.863Z,39.21
2022-12-05T04:36:47.041Z,38.56
2022-12-05T04:37:47.821Z,39.10
2022-12-05T04:38:47.002Z,37.92
2022-12-05T04:39:46.995Z,38.35
2022-12-05T04:40:46.984Z,38.67
2022-12-05T04:41:47.743Z,39.10
2022-12-05T04:42:46.972Z,38.35
2022-12-05T04:43:47.744Z,39.10
2022-12-05T04:44:46.924Z,38.89
2022-12-05T04:45:46.923Z,38.56
2022-12-05T04:46:47.719Z,38.35
2022-12-05T04:47:46.884Z,39.10
2022-12-05T04:48:46.884Z,38.89
2022-12-05T04:49:52.197Z,38.67
2022-12-05T04:50:48.074Z,39.10
2022-12-05T04:51:46.835Z,39.53
2022-12-05T04:52:47.634Z,38.89
2022-12-05T04:53:47.106Z,38.67
2022-12-05T04:54:47.595Z,38.78
2022-12-05T04:55:46.786Z,38.78
2022-12-05T04:56:46.792Z,39.10
2022-12-05T04:57:47.576Z,39.75
2022-12-05T04:58:47.095Z,38.35
2022-12-05T04:59:46.717Z,39.10
2022-12-05T05:00:47.516Z,39.53
2022-12-05T05:01:46.811Z,39.10
2022-12-05T05:02:47.042Z,39.21
2022-12-05T05:03:46.678Z,39.96
2022-12-05T05:04:47.466Z,39.21
2022-12-05T05:05:46.647Z,38.78
2022-12-05T05:06:46.647Z,39.10
2022-12-05T05:07:46.707Z,38.78
2022-12-05T05:08:48.089Z,38.78
2022-12-05T05:09:46.588Z,38.89
2022-12-05T05:10:46.929Z,39.96
2022-12-05T05:11:46.580Z,39.75
2022-12-05T05:12:46.556Z,39.10
2022-12-05T05:13:46.539Z,40.61
2022-12-05T05:14:47.348Z,39.64
2022-12-05T05:15:46.643Z,38.89
2022-12-05T05:16:46.534Z,39.42
2022-12-05T05:17:47.309Z,39.85
2022-12-05T05:18:46.480Z,40.50
2022-12-05T05:19:47.294Z,40.71
2022-12-05T05:20:46.449Z,39.75
2022-12-05T05:21:46.460Z,39.53
2022-12-05T05:22:46.443Z,39.85
2022-12-05T05:23:46.411Z,40.61
2022-12-05T05:24:46.400Z,39.53
2022-12-05T05:25:47.347Z,41.36
2022-12-05T05:26:46.391Z,40.07
2022-12-05T05:27:47.183Z,39.85
2022-12-05T05:28:46.351Z,40.28
2022-12-05T05:29:46.331Z,39.64
2022-12-05T05:30:46.357Z,40.39
2022-12-05T05:31:46.426Z,40.28
2022-12-05T05:32:47.118Z,40.61
2022-12-05T05:33:46.292Z,39.96
2022-12-05T05:34:46.279Z,40.50
2022-12-05T05:35:47.078Z,41.46
2022-12-05T05:36:46.252Z,41.46
2022-12-05T05:37:47.044Z,41.79
2022-12-05T05:38:46.213Z,41.04
2022-12-05T05:39:46.203Z,41.36
2022-12-05T05:40:47.024Z,41.36
2022-12-05T05:41:46.981Z,39.53
2022-12-05T05:42:47.121Z,40.61
2022-12-05T05:43:46.151Z,41.46
2022-12-05T05:44:46.946Z,40.93
2022-12-05T05:45:46.124Z,40.93
2022-12-05T05:46:46.170Z,40.50
2022-12-05T05:47:46.920Z,40.61
2022-12-05T05:48:46.104Z,40.61
2022-12-05T05:49:46.366Z,40.61
2022-12-05T05:50:46.865Z,41.25
2022-12-05T05:51:46.054Z,40.82
2022-12-05T05:52:47.016Z,40.28
2022-12-05T05:53:46.838Z,41.04
2022-12-05T05:54:46.007Z,40.61
2022-12-05T05:55:46.797Z,41.36
2022-12-05T05:56:46.767Z,40.71
2022-12-05T05:57:45.968Z,41.14
2022-12-05T05:58:45.952Z,42.32
2022-12-05T05:59:46.758Z,42.32
2022-12-05T06:00:45.945Z,42.11
2022-12-05T06:01:45.938Z,42.11
2022-12-05T06:02:45.963Z,41.89
2022-12-05T06:03:46.016Z,42.32
2022-12-05T06:04:45.909Z,41.57
2022-12-05T06:05:51.559Z,41.89
2022-12-05T06:06:46.989Z,42.11
2022-12-05T06:07:45.909Z,42.11
2022-12-05T06:08:46.638Z,42.54
2022-12-05T06:09:45.808Z,41.25
2022-12-05T06:10:46.616Z,40.28
2022-12-05T06:11:57.321Z,40.93
2022-12-05T06:15:38.955Z,42.22
2022-12-05T06:15:45.048Z,42.22
2022-12-05T06:16:44.726Z,42.11
2022-12-05T06:17:43.691Z,41.25
2022-12-05T06:18:43.680Z,41.57
2022-12-05T06:19:44.622Z,40.93
2022-12-05T06:20:43.662Z,41.04
2022-12-05T06:21:43.652Z,41.04
2022-12-05T06:22:43.621Z,42.32
2022-12-05T06:23:43.603Z,41.36
2022-12-05T06:24:43.602Z,41.04
2022-12-05T06:25:43.631Z,41.79
2022-12-05T06:26:43.581Z,42.00
2022-12-05T06:27:43.562Z,41.36
2022-12-05T06:28:43.550Z,41.89
2022-12-05T06:29:43.545Z,41.25
2022-12-05T06:30:43.531Z,41.68
2022-12-05T06:31:44.115Z,40.71
2022-12-05T06:32:43.496Z,41.89
2022-12-05T06:33:44.428Z,40.71
2022-12-05T06:34:43.474Z,40.28
2022-12-05T06:35:44.414Z,41.89
2022-12-05T06:36:43.462Z,41.36
2022-12-05T06:37:43.920Z,41.36
2022-12-05T06:38:43.423Z,42.22
2022-12-05T06:39:43.401Z,41.36
2022-12-05T06:40:43.402Z,42.22
2022-12-05T06:41:43.402Z,41.04
2022-12-05T06:42:43.365Z,41.04
2022-12-05T06:43:43.345Z,41.36
2022-12-05T06:44:44.137Z,41.36
2022-12-05T06:45:43.451Z,41.89
2022-12-05T06:46:43.332Z,41.25
2022-12-05T06:47:43.295Z,41.68
2022-12-05T06:48:43.292Z,41.25
2022-12-05T06:49:43.312Z,40.61
2022-12-05T06:50:44.215Z,40.61
2022-12-05T06:51:43.257Z,42.11
2022-12-05T06:52:43.238Z,41.79
2022-12-05T06:53:44.250Z,40.39
2022-12-05T06:54:43.218Z,41.36
2022-12-05T06:55:43.319Z,41.04
2022-12-05T06:56:43.207Z,40.28
2022-12-05T06:57:43.168Z,40.61
2022-12-05T06:58:43.158Z,41.36
2022-12-05T06:59:43.139Z,41.04
2022-12-05T07:00:43.157Z,41.25
2022-12-05T07:01:43.230Z,41.46
2022-12-05T07:02:43.194Z,41.14
2022-12-05T07:03:43.097Z,41.79
2022-12-05T07:04:43.068Z,41.36
2022-12-05T07:05:43.079Z,40.61
2022-12-05T07:06:46.142Z,41.04
2022-12-05T07:07:44.115Z,41.04
2022-12-05T07:08:43.022Z,41.57
2022-12-05T07:09:43.018Z,41.46
2022-12-05T07:10:43.012Z,41.57
2022-12-05T07:11:42.990Z,40.28
2022-12-05T07:12:42.982Z,41.04
2022-12-05T07:13:43.920Z,40.39
2022-12-05T07:14:48.006Z,41.14
2022-12-05T07:15:43.944Z,41.68
2022-12-05T07:16:42.960Z,42.43
2022-12-05T07:17:42.927Z,41.68
2022-12-05T07:18:42.898Z,42.00
2022-12-05T07:19:42.883Z,41.25
2022-12-05T07:21:10.565Z,41.25
2022-12-05T07:21:43.893Z,41.36
2022-12-05T07:22:42.843Z,41.04
2022-12-05T07:23:42.833Z,41.04
2022-12-05T07:24:43.766Z,41.04
2022-12-05T07:25:42.802Z,40.28
2022-12-05T07:26:42.802Z,41.04
2022-12-05T07:27:42.784Z,42.22
2022-12-05T07:28:42.765Z,40.93
2022-12-05T07:29:42.751Z,42.11
2022-12-05T07:30:42.740Z,41.36
2022-12-05T07:31:42.844Z,41.25
2022-12-05T07:32:42.715Z,40.93
2022-12-05T07:33:42.715Z,41.68
2022-12-05T07:34:42.691Z,41.36
2022-12-05T07:35:42.675Z,42.11
2022-12-05T07:36:42.675Z,42.22
2022-12-05T07:37:42.656Z,40.28
2022-12-05T07:38:42.646Z,41.25
2022-12-05T07:39:42.671Z,42.22
2022-12-05T07:40:42.605Z,41.57
2022-12-05T07:41:42.607Z,40.50
2022-12-05T07:42:42.579Z,40.39
2022-12-05T07:43:42.578Z,41.68
2022-12-05T07:44:42.562Z,41.36
2022-12-05T07:45:42.568Z,40.50
2022-12-05T07:46:42.535Z,40.28
2022-12-05T07:47:42.599Z,40.93
2022-12-05T07:48:42.505Z,40.39
2022-12-05T07:49:42.494Z,40.71
2022-12-05T07:50:42.475Z,40.28
2022-12-05T07:51:42.499Z,39.75
2022-12-05T07:52:42.448Z,40.61
2022-12-05T07:53:42.448Z,39.96
2022-12-05T07:54:42.430Z,40.61
2022-12-05T07:55:42.418Z,40.61
2022-12-05T07:56:47.591Z,39.96
2022-12-05T07:57:43.399Z,41.04
2022-12-05T07:58:42.402Z,40.28
2022-12-05T07:59:42.369Z,40.93
2022-12-05T08:00:43.427Z,39.75
2022-12-05T08:01:42.453Z,40.61
2022-12-05T08:02:42.361Z,39.96
2022-12-05T08:03:42.318Z,40.50
2022-12-05T08:04:43.250Z,40.28
2022-12-05T08:05:42.281Z,39.85
2022-12-05T08:06:42.278Z,40.50
2022-12-05T08:07:42.326Z,40.50
2022-12-05T08:08:42.241Z,39.32
2022-12-05T08:09:42.230Z,39.85
2022-12-05T08:10:43.170Z,40.50
2022-12-05T08:11:42.212Z,40.39
2022-12-05T08:12:42.181Z,40.28
2022-12-05T08:13:42.174Z,41.36
2022-12-05T08:14:43.121Z,39.42
2022-12-05T08:15:42.152Z,40.28
2022-12-05T08:16:42.172Z,41.89
2022-12-05T08:17:42.134Z,40.71
2022-12-05T08:18:42.112Z,40.71
2022-12-05T08:19:42.127Z,41.36
2022-12-05T08:20:42.082Z,42.22
2022-12-05T08:21:42.093Z,42.22
2022-12-05T08:22:42.084Z,41.46
2022-12-05T08:23:42.109Z,41.25
2022-12-05T08:24:42.033Z,41.46
2022-12-05T08:25:42.023Z,41.36
2022-12-05T08:26:42.013Z,40.50
2022-12-05T08:27:41.995Z,39.53
2022-12-05T08:28:41.979Z,40.50
2022-12-05T08:29:41.972Z,41.89
2022-12-05T08:30:42.021Z,40.39
2022-12-05T08:31:41.949Z,40.71
2022-12-05T08:32:41.926Z,40.93
2022-12-05T08:33:41.917Z,40.82
2022-12-05T08:34:41.895Z,40.50
2022-12-05T08:35:41.893Z,40.28
2022-12-05T08:36:41.879Z,41.36
2022-12-05T08:37:41.874Z,41.46
2022-12-05T08:38:41.885Z,40.61
2022-12-05T08:39:41.845Z,40.18
2022-12-05T08:40:41.837Z,39.75
2022-12-05T08:41:41.816Z,40.61
2022-12-05T08:42:41.798Z,39.85
2022-12-05T08:43:41.807Z,40.61
2022-12-05T08:44:41.781Z,39.10
2022-12-05T08:45:41.806Z,39.85
2022-12-05T08:46:41.797Z,40.61
2022-12-05T08:47:41.732Z,40.61
2022-12-05T08:48:41.717Z,39.85
2022-12-05T08:49:42.692Z,40.82
2022-12-05T08:50:41.688Z,39.85
2022-12-05T08:51:42.641Z,40.71
2022-12-05T08:52:41.661Z,39.96
2022-12-05T08:53:44.710Z,40.61
2022-12-05T08:54:42.585Z,39.64
2022-12-05T08:55:41.630Z,40.28
2022-12-05T08:56:41.640Z,41.46
2022-12-05T08:57:41.598Z,40.82
2022-12-05T08:58:41.589Z,39.53
2022-12-05T08:59:41.579Z,39.10
2022-12-05T09:00:41.570Z,40.61
2022-12-05T09:01:41.628Z,39.96
2022-12-05T09:02:41.615Z,39.96
2022-12-05T09:03:47.330Z,39.85
2022-12-05T09:04:42.510Z,39.32
2022-12-05T09:05:41.508Z,39.75
2022-12-05T09:06:41.513Z,39.85
2022-12-05T09:07:41.536Z,39.32
2022-12-05T09:08:41.451Z,38.78
2022-12-05T09:09:41.446Z,39.53
2022-12-05T09:10:41.464Z,38.99
2022-12-05T09:11:41.440Z,39.75
2022-12-05T09:12:41.409Z,39.85
2022-12-05T09:13:41.392Z,39.42
2022-12-05T09:14:41.387Z,39.75
2022-12-05T09:15:41.461Z,38.78
2022-12-05T09:16:41.376Z,38.78
2022-12-05T09:17:41.354Z,39.85
2022-12-05T09:18:41.337Z,38.67
2022-12-05T09:19:41.348Z,39.85
2022-12-05T09:20:41.294Z,39.64
2022-12-05T09:21:41.298Z,38.78
2022-12-05T09:22:42.232Z,39.53
2022-12-05T09:23:41.263Z,39.32
2022-12-05T09:24:41.245Z,40.07
2022-12-05T09:25:41.244Z,39.64
2022-12-05T09:26:41.252Z,38.56
2022-12-05T09:27:41.217Z,39.96
2022-12-05T09:28:42.155Z,39.64
2022-12-05T09:29:41.185Z,39.10
2022-12-05T09:30:41.228Z,38.89
2022-12-05T09:31:41.221Z,40.50
2022-12-05T09:32:41.181Z,40.93
2022-12-05T09:33:41.136Z,38.99
2022-12-05T09:34:41.128Z,40.61
2022-12-05T09:35:41.106Z,40.39
2022-12-05T09:36:41.106Z,38.78
2022-12-05T09:37:41.087Z,39.32
2022-12-05T09:38:41.075Z,39.85
2022-12-05T09:39:41.056Z,40.61
2022-12-05T09:40:41.046Z,38.78
2022-12-05T09:41:41.037Z,38.99
2022-12-05T09:42:41.015Z,39.64
2022-12-05T09:43:41.008Z,40.93
2022-12-05T09:44:40.999Z,38.78
2022-12-05T09:45:40.977Z,38.78
2022-12-05T09:46:41.008Z,38.35
2022-12-05T09:47:40.947Z,39.75
2022-12-05T09:48:40.937Z,40.71
2022-12-05T09:49:40.961Z,40.07
2022-12-05T09:50:40.908Z,40.82
2022-12-05T09:51:40.920Z,39.10
2022-12-05T09:52:40.900Z,39.53
2022-12-05T09:53:40.878Z,39.42
2022-12-05T09:54:40.859Z,40.18
2022-12-05T09:55:40.854Z,38.99
2022-12-05T09:56:40.848Z,40.71
2022-12-05T09:57:40.829Z,39.10
2022-12-05T09:58:40.801Z,39.21
2022-12-05T09:59:40.801Z,39.21
2022-12-05T10:00:40.781Z,38.99
2022-12-05T10:01:40.863Z,39.96
2022-12-05T10:02:40.781Z,39.32
2022-12-05T10:03:40.752Z,38.89
2022-12-05T10:04:40.782Z,39.64
2022-12-05T10:05:40.738Z,39.42
2022-12-05T10:06:40.722Z,40.28
2022-12-05T10:07:40.712Z,39.32
2022-12-05T10:08:40.673Z,40.07
2022-12-05T10:09:40.677Z,39.64
2022-12-05T10:10:40.670Z,39.85
2022-12-05T10:11:40.652Z,38.99
2022-12-05T10:12:40.623Z,39.53
2022-12-05T10:13:40.613Z,38.89
2022-12-05T10:14:40.602Z,38.78
2022-12-05T10:15:43.862Z,38.78
2022-12-05T10:16:41.653Z,39.64
2022-12-05T10:17:40.574Z,38.99
2022-12-05T10:18:40.547Z,39.21
2022-12-05T10:19:40.536Z,39.21
2022-12-05T10:20:40.525Z,40.71
2022-12-05T10:21:40.532Z,38.78
2022-12-05T10:22:40.494Z,39.85
2022-12-05T10:24:41.464Z,39.85
2022-12-05T10:25:40.492Z,39.53
2022-12-05T10:26:40.445Z,39.85
2022-12-05T10:27:40.757Z,39.10
2022-12-05T10:28:40.427Z,39.42
2022-12-05T10:29:40.402Z,39.96
2022-12-05T10:30:40.387Z,39.10
2022-12-05T10:31:40.531Z,39.85
2022-12-05T10:32:40.364Z,39.10
2022-12-05T10:33:40.378Z,39.64
2022-12-05T10:34:40.347Z,39.10
2022-12-05T10:35:40.339Z,39.10
2022-12-05T10:36:40.327Z,39.21
2022-12-05T10:37:40.306Z,39.75
2022-12-05T10:38:40.277Z,38.89
2022-12-05T10:39:40.288Z,38.89
2022-12-05T10:40:40.251Z,39.64
2022-12-05T10:41:40.248Z,39.21
2022-12-05T10:42:40.229Z,39.53
2022-12-05T10:43:40.219Z,39.85
2022-12-05T10:44:40.388Z,39.85
2022-12-05T10:45:40.196Z,39.85
2022-12-05T10:46:40.252Z,39.64
2022-12-05T10:47:41.115Z,39.10
2022-12-05T10:48:40.149Z,39.85
2022-12-05T10:49:40.167Z,38.89
2022-12-05T10:50:40.120Z,39.53
2022-12-05T10:51:40.117Z,39.96
2022-12-05T10:52:40.091Z,39.75
2022-12-05T10:53:40.087Z,39.96
2022-12-05T10:54:40.069Z,39.64
2022-12-05T10:55:40.062Z,38.67
2022-12-05T10:56:40.050Z,40.07
2022-12-05T10:57:40.047Z,39.85
2022-12-05T10:58:40.023Z,38.78
2022-12-05T10:59:40.013Z,38.78
2022-12-05T11:00:40.002Z,39.64
2022-12-05T11:01:40.066Z,39.10
2022-12-05T11:02:39.969Z,39.64
2022-12-05T11:03:39.953Z,38.67
2022-12-05T11:04:40.042Z,40.71
2022-12-05T11:05:40.000Z,39.21
2022-12-05T11:06:39.925Z,38.67
2022-12-05T11:07:39.919Z,38.67
2022-12-05T11:09:03.593Z,39.32
2022-12-05T11:09:40.872Z,39.96
2022-12-05T11:10:39.864Z,38.56
2022-12-05T11:11:39.854Z,39.10
2022-12-05T11:12:39.849Z,39.21
2022-12-05T11:13:39.828Z,39.75
2022-12-05T11:14:39.825Z,38.67
2022-12-05T11:15:39.838Z,39.10
2022-12-05T11:16:39.892Z,38.78
2022-12-05T11:17:39.809Z,38.89
2022-12-05T11:18:39.765Z,38.99
2022-12-05T11:19:39.746Z,39.10
2022-12-05T11:20:39.745Z,39.10
2022-12-05T11:21:39.744Z,39.64
2022-12-05T11:22:43.195Z,39.64
2022-12-05T11:23:39.688Z,39.85
2022-12-05T11:24:39.695Z,40.07
2022-12-05T11:25:39.666Z,39.10
2022-12-05T11:26:39.674Z,39.75
2022-12-05T11:27:39.636Z,38.99
2022-12-05T11:28:39.628Z,38.99
2022-12-05T11:29:39.613Z,38.89
2022-12-05T11:30:39.607Z,39.53
2022-12-05T11:31:39.625Z,38.99
2022-12-05T11:32:39.577Z,38.99
2022-12-05T11:33:39.559Z,40.18
2022-12-05T11:34:39.547Z,38.99
2022-12-05T11:35:39.547Z,38.78
2022-12-05T11:36:39.537Z,39.53
2022-12-05T11:37:39.509Z,39.75
2022-12-05T11:38:39.503Z,39.10
2022-12-05T11:39:39.478Z,38.99
2022-12-05T11:40:39.545Z,38.99
2022-12-05T11:41:39.475Z,39.75
2022-12-05T11:42:39.449Z,39.10
2022-12-05T11:43:39.444Z,38.78
2022-12-05T11:44:39.416Z,39.10
2022-12-05T11:45:39.411Z,38.78
2022-12-05T11:46:39.473Z,38.78
2022-12-05T11:47:39.372Z,38.78
2022-12-05T11:48:39.362Z,38.35
2022-12-05T11:49:39.404Z,39.85
2022-12-05T11:50:39.339Z,39.21
2022-12-05T11:51:39.331Z,38.46
2022-12-05T11:52:40.963Z,40.18
2022-12-05T11:53:39.290Z,39.96
2022-12-05T11:55:04.516Z,39.96
2022-12-05T11:55:40.273Z,38.78
2022-12-05T11:56:39.284Z,39.85
2022-12-05T11:57:39.238Z,38.46
2022-12-05T11:58:39.227Z,38.78
2022-12-05T11:59:39.212Z,39.85
2022-12-05T12:00:39.203Z,40.07
2022-12-05T12:01:39.257Z,39.64
2022-12-05T12:02:39.418Z,39.85
2022-12-05T12:03:39.274Z,39.10
2022-12-05T12:04:39.160Z,39.64
2022-12-05T12:05:40.132Z,38.56
2022-12-05T12:06:39.150Z,38.89
2022-12-05T12:07:39.174Z,38.67
2022-12-05T12:08:39.094Z,40.18
2022-12-05T12:09:39.087Z,39.10
2022-12-05T12:10:39.074Z,39.53
2022-12-05T12:11:39.070Z,39.10
2022-12-05T12:12:39.044Z,38.67
2022-12-05T12:13:39.046Z,38.78
2022-12-05T12:14:39.057Z,38.89
2022-12-05T12:15:39.004Z,38.46
2022-12-05T12:16:39.077Z,39.32
2022-12-05T12:17:38.974Z,39.85
2022-12-05T12:18:38.955Z,38.67
2022-12-05T12:19:38.946Z,38.89
2022-12-05T12:20:38.944Z,39.10
2022-12-05T12:21:39.056Z,39.10
2022-12-05T12:22:38.960Z,39.32
2022-12-05T12:23:38.887Z,39.10
2022-12-05T12:24:38.876Z,39.10
2022-12-05T12:25:38.866Z,38.67
2022-12-05T12:26:38.872Z,38.67
2022-12-05T12:27:38.847Z,38.67
2022-12-05T12:28:38.825Z,39.10
2022-12-05T12:29:38.808Z,39.10
2022-12-05T12:30:38.818Z,38.56
2022-12-05T12:31:38.832Z,38.99
2022-12-05T12:32:38.768Z,38.46
2022-12-05T12:33:38.748Z,38.78
2022-12-05T12:34:38.756Z,38.46
2022-12-05T12:35:38.736Z,37.71
2022-12-05T12:36:38.728Z,38.67
2022-12-05T12:37:38.698Z,39.53
2022-12-05T12:38:38.699Z,39.75
2022-12-05T12:39:38.686Z,39.42
2022-12-05T12:40:38.660Z,38.89
2022-12-05T12:41:38.660Z,38.89
2022-12-05T12:42:38.632Z,39.75
2022-12-05T12:43:53.525Z,38.78
2022-12-05T12:44:39.620Z,38.78
2022-12-05T12:45:38.661Z,38.46
2022-12-05T12:46:38.672Z,38.67
2022-12-05T12:47:38.560Z,38.99
2022-12-05T12:48:38.551Z,38.78
2022-12-05T12:49:38.542Z,39.10
2022-12-05T12:50:43.446Z,39.10
2022-12-05T12:51:39.520Z,38.78
2022-12-05T12:52:38.501Z,38.46
2022-12-05T12:53:38.481Z,38.46
2022-12-05T12:55:13.152Z,38.99
2022-12-05T12:55:39.482Z,38.67
2022-12-05T12:56:38.458Z,38.99
2022-12-05T12:57:38.434Z,38.35
2022-12-05T12:58:38.430Z,38.78
2022-12-05T12:59:39.352Z,38.56
2022-12-05T13:00:38.400Z,38.99